createdAt,value
2023-05-03T00:01:22.341Z,100179.09
2023-05-03T00:05:34.789Z,100175.84
2023-05-03T00:09:50.136Z,100161.56
2023-05-03T00:14:02.552Z,100161.47
2023-05-03T00:18:15.005Z,100164.81
2023-05-03T00:22:27.740Z,100146.69
2023-05-03T00:26:40.094Z,100155.25
2023-05-03T00:30:53.549Z,100153.38
2023-05-03T00:35:07.013Z,100142.97
2023-05-03T00:39:19.402Z,100130.91
2023-05-03T00:43:32.643Z,100147.56
2023-05-03T00:47:45.580Z,100146.41
2023-05-03T00:51:59.633Z,100141.94
2023-05-03T00:56:13.482Z,100134.59
2023-05-03T01:00:25.998Z,100131.09
2023-05-03T01:04:39.348Z,100120.09
2023-05-03T01:09:32.651Z,100109.19
2023-05-03T01:13:56.573Z,100093.34
2023-05-03T01:18:24.583Z,100091.66
2023-05-03T01:22:58.529Z,100097.84
2023-05-03T01:27:12.009Z,100105.03
2023-05-03T01:31:34.161Z,100108.38
2023-05-03T01:36:23.496Z,100113.66
2023-05-03T01:40:58.648Z,100126.94
2023-05-03T01:45:13.143Z,100111.63
2023-05-03T01:49:25.667Z,100113.97
2023-05-03T01:53:38.182Z,100097.94
2023-05-03T01:57:50.663Z,100092.13
2023-05-03T02:02:04.117Z,100084.53
2023-05-03T02:06:16.531Z,100091.94
2023-05-03T02:10:28.925Z,100079.59
2023-05-03T02:14:41.522Z,100066.94
2023-05-03T02:18:54.727Z,100074.41
2023-05-03T02:23:07.302Z,100071.06
2023-05-03T02:27:19.699Z,100066.41
2023-05-03T02:31:32.206Z,100067.56
2023-05-03T02:35:45.085Z,100071.22
2023-05-03T02:39:57.523Z,100071.88
2023-05-03T02:44:10.079Z,100075.78
2023-05-03T02:48:24.017Z,100064.53
2023-05-03T02:52:36.498Z,100067.97
2023-05-03T02:56:49.316Z,100063.50
2023-05-03T03:01:01.757Z,100060.91
2023-05-03T03:05:17.805Z,100053.63
2023-05-03T03:09:34.250Z,100061.13
2023-05-03T03:13:50.664Z,100059.44
2023-05-03T03:18:03.481Z,100054.91
2023-05-03T03:22:16.030Z,100051.56
2023-05-03T03:26:28.555Z,100052.63
2023-05-03T03:30:41.204Z,100057.34
2023-05-03T03:35:04.717Z,100061.84
2023-05-03T03:39:17.283Z,100069.72
2023-05-03T03:43:31.103Z,100072.06
2023-05-03T03:47:44.866Z,100090.56
2023-05-03T03:51:57.460Z,100090.00
2023-05-03T03:56:09.924Z,100084.50
2023-05-03T04:00:22.480Z,100091.50
2023-05-03T04:04:42.632Z,100106.50
2023-05-03T04:08:55.122Z,100099.81
2023-05-03T04:13:07.933Z,100108.91
2023-05-03T04:17:21.081Z,100101.69
2023-05-03T04:21:33.669Z,100105.41
2023-05-03T04:25:49.049Z,100115.00
2023-05-03T04:30:04.655Z,100121.00
2023-05-03T04:34:19.329Z,100116.94
2023-05-03T04:38:34.639Z,100134.06
2023-05-03T04:42:49.214Z,100151.56
2023-05-03T04:47:03.087Z,100161.31
2023-05-03T04:51:15.659Z,100152.50
2023-05-03T04:55:29.881Z,100154.41
2023-05-03T04:59:44.202Z,100162.81
2023-05-03T05:03:57.082Z,100169.25
2023-05-03T05:08:17.835Z,100169.84
2023-05-03T05:12:35.965Z,100176.09
2023-05-03T05:16:51.757Z,100176.25
2023-05-03T05:21:04.762Z,100181.38
2023-05-03T05:25:19.219Z,100175.53
2023-05-03T05:29:32.632Z,100177.41
2023-05-03T05:33:45.271Z,100185.69
2023-05-03T05:37:58.385Z,100177.22
2023-05-03T05:42:12.334Z,100179.72
2023-05-03T05:46:25.691Z,100189.34
2023-05-03T05:50:39.719Z,100185.53
2023-05-03T05:54:55.883Z,100178.84
2023-05-03T05:59:09.028Z,100174.97
2023-05-03T06:03:21.710Z,100173.50
2023-05-03T06:07:37.099Z,100172.88
2023-05-03T06:11:49.612Z,100178.44
2023-05-03T06:16:02.913Z,100180.28
2023-05-03T06:20:16.829Z,100180.75
2023-05-03T06:24:31.457Z,100183.03
2023-05-03T06:28:46.100Z,100193.69
2023-05-03T06:32:58.963Z,100206.03
2023-05-03T06:37:11.771Z,100207.53
2023-05-03T06:41:24.328Z,100208.22
2023-05-03T06:45:36.822Z,100207.72
2023-05-03T06:49:49.798Z,100211.13
2023-05-03T06:54:12.788Z,100215.72
2023-05-03T06:58:25.195Z,100214.91
2023-05-03T07:02:37.914Z,100210.22
2023-05-03T07:06:56.559Z,100218.69
2023-05-03T07:11:10.308Z,100213.47
2023-05-03T07:15:22.770Z,100218.38
2023-05-03T07:19:35.358Z,100219.09
2023-05-03T07:23:47.757Z,100220.25
2023-05-03T07:28:00.637Z,100225.72
2023-05-03T07:32:13.433Z,100219.00
2023-05-03T07:36:26.524Z,100223.44
2023-05-03T07:40:38.964Z,100221.75
2023-05-03T07:44:52.416Z,100229.44
2023-05-03T07:49:06.500Z,100232.31
2023-05-03T07:53:18.776Z,100231.88
2023-05-03T07:57:31.402Z,100228.44
2023-05-03T08:01:43.957Z,100240.88
2023-05-03T08:05:56.438Z,100254.69
2023-05-03T08:10:09.003Z,100260.50
2023-05-03T08:14:21.478Z,100248.34
2023-05-03T08:18:33.932Z,100254.19
2023-05-03T08:22:47.064Z,100251.72
2023-05-03T08:26:59.568Z,100258.53
2023-05-03T08:31:12.789Z,100260.91
2023-05-03T08:35:25.683Z,100272.69
2023-05-03T08:39:39.172Z,100266.53
2023-05-03T08:43:54.869Z,100261.56
2023-05-03T08:48:07.520Z,100264.38
2023-05-03T08:52:24.031Z,100262.97
2023-05-03T08:56:41.848Z,100271.31
2023-05-03T09:00:54.224Z,100269.31
2023-05-03T09:05:34.408Z,100270.22
2023-05-03T09:09:49.661Z,100271.97
2023-05-03T09:14:18.941Z,100271.88
2023-05-03T09:18:31.392Z,100269.41
2023-05-03T09:22:52.703Z,100261.78
2023-05-03T09:27:19.529Z,100275.56
2023-05-03T09:31:33.676Z,100268.84
2023-05-03T09:36:00.632Z,100263.63
2023-05-03T09:40:18.430Z,100259.91
2023-05-03T09:44:51.982Z,100259.19
2023-05-03T09:49:04.561Z,100263.38
2023-05-03T09:53:20.400Z,100267.34
2023-05-03T09:57:33.827Z,100253.88
2023-05-03T10:01:48.002Z,100250.06
2023-05-03T10:06:04.290Z,100243.53
2023-05-03T10:10:16.905Z,100246.47
2023-05-03T10:14:29.855Z,100245.97
2023-05-03T10:18:49.732Z,100247.13
2023-05-03T10:23:05.175Z,100242.28
2023-05-03T10:27:17.685Z,100235.16
2023-05-03T10:31:49.209Z,100234.88
2023-05-03T10:36:06.882Z,100238.25
2023-05-03T10:40:19.727Z,100232.47
2023-05-03T10:44:39.650Z,100245.50
2023-05-03T10:49:18.822Z,100235.34
2023-05-03T10:53:34.203Z,100225.09
2023-05-03T10:57:48.549Z,100225.47
2023-05-03T11:02:01.368Z,100229.16
2023-05-03T11:06:38.977Z,100241.69
2023-05-03T11:10:58.144Z,100232.75
2023-05-03T11:15:12.561Z,100228.56
2023-05-03T11:19:25.734Z,100225.34
2023-05-03T11:23:39.902Z,100221.22
2023-05-03T11:27:52.298Z,100214.16
2023-05-03T11:32:04.959Z,100205.72
2023-05-03T11:36:17.640Z,100202.47
2023-05-03T11:40:30.072Z,100198.25
2023-05-03T11:44:42.564Z,100193.00
2023-05-03T11:48:55.211Z,100190.22
2023-05-03T11:53:08.085Z,100181.03
2023-05-03T11:57:21.997Z,100185.59
2023-05-03T12:01:35.108Z,100190.47
2023-05-03T12:05:49.664Z,100179.16
2023-05-03T12:15:03.498Z,100178.50
2023-05-03T12:19:33.514Z,100163.44
2023-05-03T12:23:50.014Z,100163.94
2023-05-03T12:32:23.156Z,100142.06
2023-05-03T12:36:37.732Z,100132.50
2023-05-03T12:40:54.995Z,100136.34
2023-05-03T12:45:12.028Z,100132.09
2023-05-03T12:49:25.201Z,100119.00
2023-05-03T12:53:39.002Z,100123.22
2023-05-03T12:58:14.634Z,100122.09
2023-05-03T13:06:43.073Z,100117.31
2023-05-03T13:10:56.432Z,100114.34
2023-05-03T13:15:09.723Z,100117.16
2023-05-03T13:19:22.136Z,100118.03
2023-05-03T13:23:34.620Z,100115.97
2023-05-03T13:27:47.607Z,100114.94
2023-05-03T13:32:00.205Z,100107.00
2023-05-03T13:36:12.659Z,100112.81
2023-05-03T13:40:25.196Z,100122.16
2023-05-03T13:44:37.617Z,100157.06
2023-05-03T13:48:50.100Z,100177.44
2023-05-03T13:53:02.615Z,100169.69
2023-05-03T13:57:15.391Z,100178.19
2023-05-03T14:01:29.201Z,100183.03
2023-05-03T14:05:41.651Z,100194.56
2023-05-03T14:09:54.002Z,100217.28
2023-05-03T14:14:06.544Z,100230.06
2023-05-03T14:18:19.012Z,100226.41
2023-05-03T14:22:33.944Z,100234.81
2023-05-03T14:26:46.566Z,100254.03
2023-05-03T14:30:58.999Z,100264.09
2023-05-03T14:35:11.570Z,100269.59
2023-05-03T14:39:27.087Z,100254.38
2023-05-03T14:43:39.593Z,100246.19
2023-05-03T14:47:52.003Z,100247.38
2023-05-03T14:52:04.665Z,100243.91
2023-05-03T14:56:17.093Z,100236.88
2023-05-03T15:00:29.546Z,100245.16
2023-05-03T15:04:42.038Z,100260.22
2023-05-03T15:08:55.332Z,100261.94
2023-05-03T15:13:08.710Z,100259.91
2023-05-03T15:17:21.348Z,100252.50
2023-05-03T15:21:45.482Z,100250.06
2023-05-03T15:26:00.602Z,100255.00
2023-05-03T15:30:15.082Z,100239.44
2023-05-03T15:34:27.753Z,100243.94
2023-05-03T15:38:41.233Z,100248.00
2023-05-03T15:42:53.775Z,100248.06
2023-05-03T15:47:07.675Z,100255.31
2023-05-03T15:51:22.397Z,100259.25
2023-05-03T15:55:35.027Z,100266.66
2023-05-03T15:59:48.695Z,100273.50
2023-05-03T16:04:01.394Z,100272.34
2023-05-03T16:08:14.004Z,100280.44
2023-05-03T16:12:29.482Z,100285.75
2023-05-03T16:16:42.249Z,100285.69
2023-05-03T16:20:55.001Z,100301.09
2023-05-03T16:25:13.592Z,100301.28
2023-05-03T16:29:26.060Z,100305.91
2023-05-03T16:33:38.642Z,100310.94
2023-05-03T16:37:51.660Z,100298.47
2023-05-03T16:42:04.188Z,100303.50
2023-05-03T16:46:16.753Z,100306.88
2023-05-03T16:50:29.231Z,100308.06
2023-05-03T16:54:43.607Z,100311.81
2023-05-03T16:58:56.741Z,100304.44
2023-05-03T17:03:09.371Z,100313.69
2023-05-03T17:07:22.515Z,100313.00
2023-05-03T17:11:36.420Z,100317.88
2023-05-03T17:15:49.072Z,100324.34
2023-05-03T17:20:01.687Z,100322.81
2023-05-03T17:24:14.236Z,100322.13
2023-05-03T17:28:27.201Z,100326.88
2023-05-03T17:32:39.693Z,100322.69
2023-05-03T17:36:52.261Z,100334.47
2023-05-03T17:41:08.272Z,100333.63
2023-05-03T17:45:20.563Z,100348.16
2023-05-03T17:49:35.888Z,100350.75
2023-05-03T17:53:48.409Z,100356.09
2023-05-03T17:58:00.850Z,100363.94
2023-05-03T18:02:13.791Z,100357.75
2023-05-03T18:06:27.068Z,100370.84
2023-05-03T18:10:42.096Z,100380.94
2023-05-03T18:14:59.744Z,100370.44
2023-05-03T18:19:13.060Z,100376.97
2023-05-03T18:23:25.488Z,100386.13
2023-05-03T18:27:38.065Z,100382.66
2023-05-03T18:31:58.706Z,100391.72
2023-05-03T18:36:12.335Z,100398.44
2023-05-03T18:40:25.503Z,100406.72
2023-05-03T18:44:39.878Z,100402.41
2023-05-03T18:48:53.898Z,100400.84
2023-05-03T18:53:06.798Z,100411.38
2023-05-03T18:57:20.277Z,100404.25
2023-05-03T19:01:32.789Z,100418.41
2023-05-03T19:05:45.358Z,100421.44
2023-05-03T19:09:58.099Z,100413.63
2023-05-03T19:14:10.659Z,100417.81
2023-05-03T19:18:23.099Z,100418.47
2023-05-03T19:22:35.377Z,100418.47
2023-05-03T19:26:47.882Z,100431.03
2023-05-03T19:31:04.517Z,100430.09
2023-05-03T19:35:20.885Z,100428.34
2023-05-03T19:39:36.010Z,100439.97
2023-05-03T19:43:48.473Z,100429.22
2023-05-03T19:48:01.080Z,100424.97
2023-05-03T19:52:13.514Z,100432.31
2023-05-03T19:56:25.977Z,100427.22
2023-05-03T20:00:39.017Z,100438.78
2023-05-03T20:04:51.513Z,100433.41
2023-05-03T20:09:06.830Z,100437.16
2023-05-03T20:13:19.421Z,100440.94
2023-05-03T20:17:31.897Z,100443.38
2023-05-03T20:21:46.238Z,100446.19
2023-05-03T20:26:02.007Z,100446.13
2023-05-03T20:30:18.161Z,100447.78
2023-05-03T20:34:33.629Z,100460.25
2023-05-03T20:38:46.204Z,100449.50
2023-05-03T20:42:58.612Z,100448.63
2023-05-03T20:47:11.069Z,100453.97
2023-05-03T20:51:23.749Z,100448.59
2023-05-03T20:55:36.124Z,100452.13
2023-05-03T20:59:48.687Z,100450.16
2023-05-03T21:04:01.350Z,100446.63
2023-05-03T21:08:13.658Z,100447.53
2023-05-03T21:12:26.272Z,100447.50
2023-05-03T21:16:38.698Z,100446.56
2023-05-03T21:20:53.905Z,100440.97
2023-05-03T21:25:06.916Z,100439.13
2023-05-03T21:29:19.247Z,100450.78
2023-05-03T21:33:31.688Z,100442.94
2023-05-03T21:37:46.401Z,100450.09
2023-05-03T21:41:59.542Z,100456.28
2023-05-03T21:46:11.941Z,100450.88
2023-05-03T21:50:24.486Z,100450.97
2023-05-03T21:54:36.848Z,100446.63
2023-05-03T21:58:49.346Z,100448.59
2023-05-03T22:03:01.883Z,100457.00
2023-05-03T22:07:15.064Z,100456.28
2023-05-03T22:11:28.451Z,100452.00
2023-05-03T22:15:40.856Z,100459.06
2023-05-03T22:19:53.364Z,100450.00
2023-05-03T22:24:06.096Z,100446.44
2023-05-03T22:28:18.583Z,100449.31
2023-05-03T22:32:31.103Z,100438.72
2023-05-03T22:36:43.350Z,100435.91
2023-05-03T22:40:55.738Z,100424.44
2023-05-03T22:45:08.820Z,100434.31
2023-05-03T22:49:21.191Z,100440.41
2023-05-03T22:53:33.540Z,100427.00
2023-05-03T22:57:46.022Z,100433.13
2023-05-03T23:01:58.524Z,100428.78
2023-05-03T23:06:11.036Z,100416.38
2023-05-03T23:10:23.548Z,100410.91
2023-05-03T23:14:36.036Z,100411.09
2023-05-03T23:18:48.791Z,100403.50
2023-05-03T23:23:01.178Z,100401.72
2023-05-03T23:27:13.662Z,100397.47
2023-05-03T23:31:31.433Z,100396.75
2023-05-03T23:35:45.418Z,100388.13
2023-05-03T23:39:57.811Z,100379.78
2023-05-03T23:44:12.428Z,100384.78
2023-05-03T23:48:24.964Z,100385.78
2023-05-03T23:52:37.661Z,100379.38
2023-05-03T23:56:50.238Z,100374.41
